Time;durP1;ratioP1;P1;durP2;ratioP2;P2;SDS_P1;SDS_P2;PMS_P1;PMS_P2;Temp;Humidity;BMP_temperature;BMP_pressure;BME280_temperature;BME280_humidity;BME280_pressure;Samples;Min_cycle;Max_cycle;Signal;HPM_P1;HPM_P2
2022/12/04 00:01:13;;;;;;;;;35.00;26.50;;;;;5.82;62.23;101168.19;2400392;28;46300;-79
2022/12/04 00:02:24;;;;;;;;;34.25;28.00;;;;;5.84;62.18;101170.78;2390310;28;45344;-79
2022/12/04 00:03:34;;;;;;;;;34.25;28.75;;;;;5.87;62.27;101170.75;2396435;28;46473;-79
2022/12/04 00:04:45;;;;;;;;;37.00;27.75;;;;;5.89;61.83;101171.59;2404273;28;45214;-79
2022/12/04 00:06:14;;;;;;;;;32.00;27.75;;;;;5.88;61.82;101169.88;2404239;28;45346;-79
2022/12/04 00:07:25;;;;;;;;;33.00;29.75;;;;;5.87;61.68;101164.66;2404416;28;45217;-79
2022/12/04 00:08:35;;;;;;;;;26.50;22.25;;;;;5.84;61.15;101163.81;2393840;28;47986;-79
2022/12/04 00:09:46;;;;;;;;;36.00;27.75;;;;;5.81;61.62;101166.44;2387341;28;45247;-79
2022/12/04 00:10:57;;;;;;;;;35.50;30.25;;;;;5.81;61.79;101166.44;2387093;28;47564;-79
2022/12/04 00:12:07;;;;;;;;;35.25;30.00;;;;;5.79;61.96;101162.97;2397101;28;45334;-79
2022/12/04 00:13:18;;;;;;;;;26.75;22.00;;;;;5.78;61.87;101166.44;2392954;28;47180;-79
2022/12/04 00:14:28;;;;;;;;;25.75;25.25;;;;;5.77;61.83;101159.50;2397086;28;45202;-79
2022/12/04 00:15:42;;;;;;;;;30.00;26.50;;;;;5.78;61.99;101174.28;2384708;28;46965;-79
2022/12/04 00:16:52;;;;;;;;;33.50;28.75;;;;;5.77;61.72;101175.16;2393952;28;44782;-79
2022/12/04 00:18:02;;;;;;;;;35.75;29.00;;;;;5.78;62.16;101169.06;2393760;28;46018;-79
2022/12/04 00:19:13;;;;;;;;;32.50;28.00;;;;;5.79;62.30;101168.19;2397007;28;45386;-79
2022/12/04 00:20:23;;;;;;;;;37.25;25.75;;;;;5.80;61.74;101176.88;2403959;28;45233;-80
2022/12/04 00:21:33;;;;;;;;;19.25;16.25;;;;;5.80;61.87;101172.50;2404220;28;44660;-79
2022/12/04 00:22:44;;;;;;;;;36.50;28.50;;;;;5.80;61.66;101169.06;2403427;28;45395;-79
2022/12/04 00:23:54;;;;;;;;;30.00;26.50;;;;;5.77;61.91;101167.34;2404135;28;45274;-79
2022/12/04 00:25:05;;;;;;;;;33.25;26.75;;;;;5.78;61.75;101166.44;2393608;28;47134;-79
2022/12/04 00:26:18;;;;;;;;;35.50;27.50;;;;;5.78;62.25;101174.28;2396950;28;45203;-79
2022/12/04 00:27:29;;;;;;;;;26.00;20.75;;;;;5.80;61.81;101177.72;2392931;28;48412;-79
2022/12/04 00:28:40;;;;;;;;;34.00;30.50;;;;;5.79;61.71;101169.94;2385822;28;45397;-79
2022/12/04 00:29:50;;;;;;;;;45.75;30.00;;;;;5.79;61.76;101178.63;2378419;28;47522;-79
2022/12/04 00:31:09;;;;;;;;;34.00;28.75;;;;;5.76;61.62;101164.72;2394241;28;44641;-79
2022/12/04 00:32:19;;;;;;;;;33.75;29.00;;;;;5.77;61.91;101172.56;2392177;28;47394;-79
2022/12/04 00:33:30;;;;;;;;;28.00;25.00;;;;;5.78;61.65;101166.44;2386997;28;44670;-79
2022/12/04 00:34:40;;;;;;;;;33.25;25.00;;;;;5.77;61.58;101161.25;2396646;28;45501;-79
2022/12/04 00:35:58;;;;;;;;;29.75;26.25;;;;;5.79;61.88;101157.75;2393936;28;45346;-79
2022/12/04 00:37:09;;;;;;;;;39.00;28.50;;;;;5.78;61.71;101163.84;2387090;28;47852;-79
2022/12/04 00:38:19;;;;;;;;;34.50;28.75;;;;;5.80;62.13;101156.03;2396928;28;44665;-79
2022/12/04 00:39:29;;;;;;;;;30.50;26.50;;;;;5.80;61.71;101153.41;2403788;28;45360;-79
2022/12/04 00:40:48;;;;;;;;;34.25;28.50;;;;;5.82;61.60;101159.47;2404045;28;44709;-79
2022/12/04 00:41:58;;;;;;;;;28.75;27.75;;;;;5.82;62.14;101155.13;2386294;28;47192;-79
2022/12/04 00:43:08;;;;;;;;;29.50;25.50;;;;;5.82;61.90;101149.91;2394854;28;44806;-79
2022/12/04 00:44:19;;;;;;;;;35.75;28.50;;;;;5.84;61.87;101156.00;2398162;28;45391;-79
2022/12/04 00:45:29;;;;;;;;;29.25;23.00;;;;;5.84;61.51;101158.59;2395162;28;45140;-79
2022/12/04 00:46:39;;;;;;;;;31.50;30.25;;;;;5.84;62.14;101156.00;2403842;28;46587;-79
2022/12/04 00:47:50;;;;;;;;;31.25;25.50;;;;;5.84;61.52;101158.59;2402857;28;45361;-79
2022/12/04 00:49:01;;;;;;;;;32.50;29.00;;;;;5.85;61.62;101159.47;2393306;28;48036;-79
2022/12/04 00:50:13;;;;;;;;;33.00;29.50;;;;;5.84;61.59;101165.56;2384575;28;45330;-79
2022/12/04 00:51:24;;;;;;;;;33.50;27.00;;;;;5.82;61.49;101156.88;2394760;28;47169;-79
2022/12/04 00:52:34;;;;;;;;;36.00;30.25;;;;;5.81;61.84;101161.22;2400521;28;45288;-79
2022/12/04 00:53:45;;;;;;;;;28.75;24.75;;;;;5.82;61.52;101167.31;2394811;28;45295;-79
2022/12/04 00:54:55;;;;;;;;;31.25;26.50;;;;;5.80;61.75;101161.25;2403921;28;45194;-79
2022/12/04 00:56:09;;;;;;;;;35.75;32.25;;;;;5.78;61.76;101158.63;2386036;28;47806;-79
2022/12/04 00:57:19;;;;;;;;;35.75;27.75;;;;;5.77;61.79;101154.28;2378819;28;45259;-79
2022/12/04 00:58:29;;;;;;;;;25.00;21.00;;;;;5.78;61.86;101161.22;2387273;28;46222;-79
2022/12/04 00:59:40;;;;;;;;;36.00;30.75;;;;;5.78;61.67;101160.38;2403736;28;45226;-79
2022/12/04 01:01:04;;;;;;;;;35.25;28.25;;;;;5.77;61.45;101156.03;2403741;28;46407;-79
2022/12/04 01:02:14;;;;;;;;;32.25;28.50;;;;;5.78;61.91;101155.16;2403504;28;45162;-79
2022/12/04 01:03:24;;;;;;;;;35.75;28.75;;;;;5.77;61.78;101159.50;2403703;28;45286;-79
2022/12/04 01:04:35;;;;;;;;;32.75;27.75;;;;;5.78;62.07;101156.00;2403865;28;45202;-79
2022/12/04 01:05:45;;;;;;;;;40.00;31.25;;;;;5.79;62.50;101152.53;2393264;28;48183;-79
2022/12/04 01:06:55;;;;;;;;;32.25;28.25;;;;;5.82;62.14;101155.13;2386304;28;45160;-79
2022/12/04 01:08:06;;;;;;;;;33.50;31.00;;;;;5.85;62.27;101156.84;2386508;28;48005;-79
2022/12/04 01:09:17;;;;;;;;;35.25;29.50;;;;;5.88;62.28;101155.97;2386935;28;44609;-79
2022/12/04 01:10:27;;;;;;;;;30.25;27.75;;;;;5.91;61.93;101156.81;2387169;28;46142;-79
2022/12/04 01:11:38;;;;;;;;;29.75;25.25;;;;;5.93;61.80;101146.34;2403950;28;45136;-79
2022/12/04 01:12:49;;;;;;;;;35.00;32.00;;;;;5.93;61.83;101149.81;2403572;28;45337;-79
2022/12/04 01:14:00;;;;;;;;;32.50;28.25;;;;;5.93;61.48;101154.19;2397648;28;45425;-79
2022/12/04 01:15:11;;;;;;;;;33.25;29.50;;;;;5.92;61.71;101142.03;2386180;28;48188;-79
2022/12/04 01:16:31;;;;;;;;;28.75;26.25;;;;;5.90;61.79;101154.22;2396662;28;45367;-79
2022/12/04 01:17:41;;;;;;;;;35.00;25.50;;;;;5.90;61.79;101151.63;2403764;28;45414;-79
2022/12/04 01:18:52;;;;;;;;;36.50;29.50;;;;;5.91;61.84;101150.72;2393459;28;45383;-79
2022/12/04 01:20:03;;;;;;;;;33.00;29.00;;;;;5.92;61.39;101147.25;2393779;28;45653;-79
2022/12/04 01:21:14;;;;;;;;;28.75;26.00;;;;;5.90;61.04;101151.63;2394352;28;45292;-79
2022/12/04 01:22:24;;;;;;;;;31.50;29.25;;;;;5.88;61.73;101150.75;2401254;28;46206;-79
2022/12/04 01:23:35;;;;;;;;;36.25;28.75;;;;;5.85;61.19;101149.03;2403838;28;45173;-79
2022/12/04 01:24:45;;;;;;;;;36.75;32.00;;;;;5.82;61.50;101147.31;2393433;28;47759;-79
2022/12/04 01:25:57;;;;;;;;;31.50;28.75;;;;;5.81;61.96;101149.91;2392079;28;44649;-79
2022/12/04 01:27:08;;;;;;;;;32.00;30.25;;;;;5.81;62.02;101148.16;2385152;28;47123;-79
2022/12/04 01:28:18;;;;;;;;;35.00;30.00;;;;;5.83;61.53;101143.81;2396582;28;45327;-79
2022/12/04 01:29:28;;;;;;;;;40.25;33.00;;;;;5.83;61.91;101138.59;2403516;28;45401;-79
2022/12/04 01:30:39;;;;;;;;;33.00;30.00;;;;;5.87;61.45;101143.78;2393271;28;45340;-79
2022/12/04 01:31:49;;;;;;;;;34.50;26.75;;;;;5.89;62.09;101144.66;2396180;28;45386;-79
2022/12/04 01:32:59;;;;;;;;;32.00;27.00;;;;;5.90;61.81;101143.78;2400200;28;45294;-79
2022/12/04 01:34:10;;;;;;;;;42.00;32.50;;;;;5.91;61.54;101146.38;2394178;28;45397;-79
2022/12/04 01:35:20;;;;;;;;;33.00;27.75;;;;;5.90;61.45;101149.00;2393220;28;45242;-79
2022/12/04 01:36:30;;;;;;;;;39.00;31.00;;;;;5.90;61.94;101154.22;2395397;28;46418;-79
2022/12/04 01:37:41;;;;;;;;;31.25;27.25;;;;;5.91;61.32;101151.59;2393189;28;45310;-79
2022/12/04 01:38:52;;;;;;;;;36.50;29.50;;;;;5.92;61.25;101144.63;2386885;28;46393;-79
2022/12/04 01:40:03;;;;;;;;;36.00;27.25;;;;;5.91;61.69;101142.88;2402660;28;45341;-79
2022/12/04 01:41:16;;;;;;;;;29.75;24.25;;;;;5.89;61.43;101148.13;2402706;28;46311;-79
2022/12/04 01:42:27;;;;;;;;;39.75;30.00;;;;;5.85;61.65;101144.66;2403055;28;45182;-79
2022/12/04 01:43:39;;;;;;;;;31.25;29.25;;;;;5.84;61.63;101142.06;2403494;28;45381;-79
2022/12/04 01:45:32;;;;;;;;;31.00;27.00;;;;;5.83;61.91;101142.94;2393134;28;45377;-79
2022/12/04 01:46:45;;;;;;;;;37.00;32.25;;;;;5.83;61.69;101149.03;2392956;28;47244;-79
2022/12/04 01:48:12;;;;;;;;;36.75;27.25;;;;;5.84;61.83;101145.56;2386802;28;45406;-79
2022/12/04 01:49:24;;;;;;;;;34.50;26.50;;;;;5.82;61.57;101144.69;2398472;28;45772;-79
2022/12/04 01:50:35;;;;;;;;;36.75;26.50;;;;;5.80;61.63;101148.19;2402394;28;45677;-79
2022/12/04 01:51:50;;;;;;;;;35.50;28.25;;;;;5.80;62.02;101154.25;2392689;28;48501;-79
2022/12/04 01:53:00;;;;;;;;;33.00;30.00;;;;;5.81;62.02;101142.97;2387776;28;44718;-79
2022/12/04 01:54:17;;;;;;;;;35.50;29.75;;;;;5.81;61.61;101149.91;2400997;28;45346;-79
2022/12/04 01:55:28;;;;;;;;;33.50;27.50;;;;;5.81;61.96;101142.09;2403405;28;44731;-79
2022/12/04 01:56:49;;;;;;;;;39.00;28.75;;;;;5.81;62.08;101150.78;2403328;28;45423;-79
2022/12/04 01:58:01;;;;;;;;;38.25;29.00;;;;;5.82;61.89;101147.31;2393302;28;45347;-79
2022/12/04 01:59:16;;;;;;;;;36.00;28.25;;;;;5.85;62.27;101152.47;2396123;28;46493;-79
2022/12/04 02:00:26;;;;;;;;;32.75;28.00;;;;;5.87;61.95;101149.88;2397605;28;45544;-79
2022/12/04 02:01:52;;;;;;;;;33.00;29.50;;;;;5.87;62.47;101147.28;2394035;28;47235;-79
2022/12/04 02:03:03;;;;;;;;;28.50;21.75;;;;;5.90;62.23;101152.44;2391309;28;45377;-79
2022/12/04 02:04:13;;;;;;;;;39.00;32.50;;;;;5.91;62.32;101145.50;2395666;28;46183;-79
2022/12/04 02:05:24;;;;;;;;;30.75;28.25;;;;;5.93;62.04;101148.97;2393161;28;45231;-79
2022/12/04 02:06:34;;;;;;;;;34.00;25.50;;;;;5.94;61.68;101150.69;2386096;28;47113;-79
2022/12/04 02:07:47;;;;;;;;;29.25;21.75;;;;;5.94;61.96;101146.34;2386475;28;45469;-79
2022/12/04 02:08:58;;;;;;;;;39.75;32.75;;;;;5.94;61.86;101151.56;2396061;28;47755;-79
2022/12/04 02:10:10;;;;;;;;;41.25;30.50;;;;;5.93;61.25;101147.22;2393020;28;45245;-79
2022/12/04 02:11:33;;;;;;;;;38.50;32.00;;;;;5.93;61.44;101143.75;2386422;28;46307;-79
2022/12/04 02:13:01;;;;;;;;;44.25;31.00;;;;;5.90;61.85;101149.00;2397844;28;44641;-79
2022/12/04 02:14:44;;;;;;;;;31.00;27.75;;;;;5.90;61.77;101151.63;2403255;28;45435;-79
2022/12/04 02:16:30;;;;;;;;;26.75;23.50;;;;;5.88;61.50;101150.75;2401217;28;45222;-79
2022/12/04 02:17:46;;;;;;;;;38.50;31.50;;;;;5.85;61.58;101151.66;2384397;28;46674;-79
2022/12/04 02:19:03;;;;;;;;;39.75;31.00;;;;;5.84;61.67;101147.28;2402335;28;44649;-79
2022/12/04 02:20:13;;;;;;;;;44.50;34.50;;;;;5.85;62.16;101151.66;2392614;28;47191;-79
2022/12/04 02:21:35;;;;;;;;;33.25;28.75;;;;;5.88;62.15;101148.16;2396110;28;45250;-79
2022/12/04 02:23:06;;;;;;;;;45.50;34.00;;;;;5.91;61.96;101151.59;2397676;28;46610;-79
2022/12/04 02:24:41;;;;;;;;;37.25;33.25;;;;;5.92;61.95;101149.84;2397612;28;45251;-79
2022/12/04 02:26:26;;;;;;;;;34.75;32.00;;;;;5.90;61.72;101151.63;2402906;28;46247;-79
2022/12/04 02:27:39;;;;;;;;;36.50;28.50;;;;;5.90;61.93;101146.38;2393142;28;44810;-80
2022/12/04 02:29:01;;;;;;;;;35.25;32.00;;;;;5.91;61.80;101148.09;2385700;28;48722;-79
2022/12/04 02:30:13;;;;;;;;;45.75;34.25;;;;;5.93;62.21;101148.97;2394420;28;46048;-79
2022/12/04 02:31:42;;;;;;;;;30.00;26.00;;;;;5.92;61.47;101142.91;2402157;28;45378;-79
2022/12/04 02:33:10;;;;;;;;;33.75;27.75;;;;;5.92;61.88;101142.03;2392986;28;44693;-79
2022/12/04 02:34:27;;;;;;;;;32.25;28.00;;;;;5.92;62.16;101139.41;2388276;28;48268;-79
2022/12/04 02:35:46;;;;;;;;;38.75;28.75;;;;;5.93;61.76;101139.38;2396550;28;44581;-79
2022/12/04 02:37:04;;;;;;;;;42.50;34.75;;;;;5.95;62.10;101136.78;2402387;28;45219;-79
2022/12/04 02:38:30;;;;;;;;;39.50;32.50;;;;;5.95;61.25;101142.00;2402487;28;45218;-79
2022/12/04 02:39:50;;;;;;;;;46.50;35.25;;;;;5.93;61.26;101138.53;2394648;28;45945;-79
2022/12/04 02:41:29;;;;;;;;;35.25;31.25;;;;;5.93;62.17;101143.75;2396890;28;45207;-79
2022/12/04 02:42:41;;;;;;;;;52.00;34.75;;;;;5.93;61.56;101151.56;2403084;28;45612;-79
2022/12/04 02:43:57;;;;;;;;;38.75;35.50;;;;;5.91;61.72;101145.50;2403218;28;45322;-79
2022/12/04 02:45:09;;;;;;;;;46.75;34.00;;;;;5.90;61.81;101142.00;2383226;28;48127;-79
2022/12/04 02:46:33;;;;;;;;;37.25;32.75;;;;;5.90;61.55;101146.38;2393207;28;45300;-79
2022/12/04 02:47:45;;;;;;;;;37.50;33.50;;;;;5.91;61.24;101148.09;2400244;28;45464;-79
2022/12/04 02:49:00;;;;;;;;;39.75;30.50;;;;;5.89;61.10;101150.75;2393243;28;45270;-79
2022/12/04 02:50:18;;;;;;;;;37.75;32.00;;;;;5.87;61.57;101149.88;2393210;28;46150;-79
2022/12/04 02:51:33;;;;;;;;;44.75;33.50;;;;;5.91;61.96;101153.31;2383604;28;45259;-79
2022/12/04 02:52:58;;;;;;;;;34.75;28.50;;;;;5.90;62.01;101151.63;2394655;28;45615;-79
2022/12/04 02:54:20;;;;;;;;;42.00;34.50;;;;;5.91;62.20;101150.72;2403079;28;45281;-80
2022/12/04 02:55:37;;;;;;;;;46.00;35.25;;;;;5.94;62.05;101151.56;2392509;28;47970;-79
2022/12/04 02:56:50;;;;;;;;;41.50;35.75;;;;;5.96;61.81;101154.16;2387075;28;45230;-79
2022/12/04 02:58:10;;;;;;;;;39.25;33.25;;;;;5.97;61.74;101150.69;2396006;28;45455;-79
2022/12/04 02:59:41;;;;;;;;;47.50;34.25;;;;;5.97;61.74;101154.13;2392230;28;44783;-79
2022/12/04 03:00:55;;;;;;;;;36.00;29.50;;;;;5.97;61.82;101148.91;2392094;28;46015;-79
2022/12/04 03:02:24;;;;;;;;;36.25;28.50;;;;;6.00;62.07;101144.59;2398203;28;45223;-79
2022/12/04 03:03:34;;;;;;;;;35.00;29.25;;;;;6.00;61.52;101145.44;2394215;28;45542;-79
2022/12/04 03:04:49;;;;;;;;;40.00;31.75;;;;;5.99;61.59;101141.09;2400108;28;45260;-79
2022/12/04 03:06:06;;;;;;;;;33.00;28.00;;;;;5.98;61.82;101136.75;2402876;28;45407;-79
2022/12/04 03:07:23;;;;;;;;;32.75;26.25;;;;;5.97;61.85;101133.25;2403079;28;44676;-79
2022/12/04 03:08:40;;;;;;;;;40.50;31.50;;;;;5.98;61.75;101139.34;2400954;28;46438;-79
2022/12/04 03:09:56;;;;;;;;;40.25;33.00;;;;;6.00;61.64;101134.16;2383629;28;44625;-79
2022/12/04 03:11:06;;;;;;;;;31.50;29.75;;;;;6.03;61.31;101142.81;2396079;28;46680;-79
2022/12/04 03:12:22;;;;;;;;;39.50;31.00;;;;;6.02;62.19;101135.88;2400997;28;45175;-78
2022/12/04 03:13:50;;;;;;;;;33.75;30.50;;;;;6.04;61.74;101134.09;2386125;28;46920;-79
2022/12/04 03:15:04;;;;;;;;;31.25;26.75;;;;;6.05;62.00;101130.59;2387978;28;45341;-78
2022/12/04 03:16:24;;;;;;;;;35.75;29.75;;;;;6.06;62.15;101129.75;2396099;28;47003;-78
2022/12/04 03:17:57;;;;;;;;;43.25;33.25;;;;;6.08;61.98;101128.00;2392473;28;44732;-79
2022/12/04 03:19:13;;;;;;;;;37.00;32.25;;;;;6.10;61.76;101132.38;2398689;28;46369;-79
2022/12/04 03:20:24;;;;;;;;;31.75;29.25;;;;;6.07;61.32;101126.25;2392865;28;45179;-79
2022/12/04 03:21:38;;;;;;;;;36.00;28.25;;;;;6.08;61.53;101125.41;2386074;28;47899;-79
2022/12/04 03:22:53;;;;;;;;;34.50;30.00;;;;;6.05;61.61;101128.00;2390177;28;44827;-79
2022/12/04 03:24:13;;;;;;;;;39.25;31.00;;;;;6.03;61.77;101123.66;2399856;28;45459;-79
2022/12/04 03:25:31;;;;;;;;;38.50;30.25;;;;;6.03;61.71;101123.66;2402990;28;45302;-78
2022/12/04 03:26:41;;;;;;;;;42.50;28.00;;;;;6.05;61.91;101124.53;2401286;28;45552;-79
2022/12/04 03:28:02;;;;;;;;;27.75;21.25;;;;;6.06;61.46;101123.66;2392678;28;44695;-78
2022/12/04 03:29:19;;;;;;;;;44.50;32.00;;;;;6.03;61.00;101127.16;2395675;28;45596;-79
2022/12/04 03:30:38;;;;;;;;;35.50;29.75;;;;;6.02;61.48;101116.72;2401941;28;45205;-79
2022/12/04 03:31:55;;;;;;;;;32.75;29.00;;;;;5.99;61.58;101125.44;2387183;28;47123;-79
2022/12/04 03:33:12;;;;;;;;;39.25;30.25;;;;;5.98;61.13;101118.47;2395086;28;45307;-79
2022/12/04 03:34:34;;;;;;;;;39.25;32.00;;;;;5.95;61.56;101119.38;2401245;28;47493;-79
2022/12/04 03:36:06;;;;;;;;;36.25;30.00;;;;;5.97;61.45;101124.59;2392671;28;45255;-79
2022/12/04 03:37:23;;;;;;;;;31.50;28.00;;;;;5.94;61.46;101119.38;2398555;28;45261;-78
2022/12/04 03:38:47;;;;;;;;;39.50;31.00;;;;;5.94;61.54;101124.59;2401954;28;45285;-79
2022/12/04 03:40:18;;;;;;;;;37.00;28.25;;;;;5.94;61.71;101122.88;2396781;28;47796;-79
2022/12/04 03:41:36;;;;;;;;;37.00;29.25;;;;;5.95;62.01;101123.75;2382841;28;45235;-79
2022/12/04 03:42:57;;;;;;;;;37.25;31.50;;;;;5.97;61.91;101120.22;2396621;28;45523;-78
2022/12/04 03:44:21;;;;;;;;;31.50;26.50;;;;;5.98;61.39;101115.88;2402795;28;45187;-79
2022/12/04 03:45:46;;;;;;;;;32.25;29.00;;;;;5.99;61.77;101117.63;2396236;28;45718;-79
2022/12/04 03:47:15;;;;;;;;;37.50;31.00;;;;;5.97;61.81;101114.16;2387883;28;45211;-79
2022/12/04 03:49:05;;;;;;;;;38.00;31.25;;;;;5.95;61.79;101110.69;2396138;28;46473;-79
2022/12/04 03:50:28;;;;;;;;;41.50;29.75;;;;;5.96;61.83;101112.41;2392355;28;45282;-79
2022/12/04 03:51:46;;;;;;;;;39.00;32.25;;;;;5.95;61.67;101105.47;2397074;28;45396;-79
2022/12/04 03:53:36;;;;;;;;;35.00;32.00;;;;;5.94;61.86;101099.38;2402847;28;45219;-79
2022/12/04 03:55:01;;;;;;;;;31.25;27.50;;;;;5.91;61.51;101088.97;2401435;28;45550;-78
2022/12/04 03:56:19;;;;;;;;;32.25;28.50;;;;;5.92;61.75;101084.63;2391978;28;45246;-79
2022/12/04 03:57:35;;;;;;;;;37.75;29.25;;;;;5.92;61.58;101084.63;2385608;28;48108;-79
2022/12/04 03:58:51;;;;;;;;;42.00;33.00;;;;;5.90;61.69;101081.16;2396521;28;44637;-79
2022/12/04 04:00:13;;;;;;;;;39.00;32.00;;;;;5.89;61.52;101074.19;2401087;28;46776;-79
2022/12/04 04:01:29;;;;;;;;;38.00;34.00;;;;;5.87;61.63;101066.41;2402513;28;45230;-79
2022/12/04 04:02:45;;;;;;;;;34.25;30.00;;;;;5.87;61.26;101066.41;2401870;28;46375;-79
2022/12/04 04:03:58;;;;;;;;;37.25;30.75;;;;;5.86;61.59;101064.66;2402704;28;44525;-79
2022/12/04 04:05:11;;;;;;;;;34.00;29.75;;;;;5.84;61.15;101066.41;2402566;28;45687;-79
2022/12/04 04:06:27;;;;;;;;;44.50;33.00;;;;;5.82;61.43;101061.22;2392394;28;44636;-79
2022/12/04 04:07:55;;;;;;;;;32.50;27.50;;;;;5.79;61.91;101061.22;2395889;28;46453;-79
2022/12/04 04:09:13;;;;;;;;;40.00;31.75;;;;;5.78;61.92;101056.03;2399450;28;45466;-79
2022/12/04 04:10:25;;;;;;;;;31.25;28.50;;;;;5.79;61.69;101057.75;2402532;28;46615;-79
2022/12/04 04:11:43;;;;;;;;;36.25;29.75;;;;;5.81;61.92;101048.16;2392370;28;45176;-78
2022/12/04 04:24:14;;;;;;;;;40.50;31.50;;;;;5.82;62.09;101047.31;2400814;28;46968;-79
2022/12/04 04:25:26;;;;;;;;;36.25;28.75;;;;;5.85;62.02;101052.50;2392140;28;47998;-79
2022/12/04 04:26:49;;;;;;;;;31.75;29.75;;;;;5.85;62.22;101058.56;2395484;28;45231;-79
2022/12/04 04:27:59;;;;;;;;;44.00;32.00;;;;;5.83;61.77;101062.94;2395792;28;45621;-79
2022/12/04 04:29:10;;;;;;;;;35.75;33.50;;;;;5.84;62.02;101055.97;2393230;28;45276;-79
2022/12/04 04:30:20;;;;;;;;;34.25;29.00;;;;;5.84;61.87;101062.06;2395056;28;46542;-79
2022/12/04 04:31:39;;;;;;;;;34.75;28.50;;;;;5.83;61.92;101057.72;2385567;28;45282;-79
2022/12/04 04:33:05;;;;;;;;;34.50;26.25;;;;;5.84;61.87;101056.84;2386630;28;48081;-79
2022/12/04 04:34:28;;;;;;;;;41.25;27.75;;;;;5.84;61.67;101056.84;2397510;28;45258;-79
2022/12/04 04:35:56;;;;;;;;;44.75;30.75;;;;;5.85;62.25;101055.94;2402587;28;46268;-79
2022/12/04 04:37:18;;;;;;;;;35.00;27.50;;;;;5.88;61.93;101054.22;2392248;28;45461;-79
2022/12/04 04:38:44;;;;;;;;;38.00;29.75;;;;;5.88;61.17;101043.78;2386276;28;47531;-79
2022/12/04 04:40:03;;;;;;;;;34.25;29.25;;;;;5.88;61.64;101046.41;2396893;28;45341;-79
2022/12/04 04:41:21;;;;;;;;;36.50;30.75;;;;;5.87;61.99;101050.75;2392120;28;48173;-79
2022/12/04 04:42:39;;;;;;;;;41.25;31.25;;;;;5.89;61.82;101048.97;2390202;28;45318;-79
2022/12/04 04:44:14;;;;;;;;;32.25;26.50;;;;;5.90;62.01;101049.84;2389331;28;47277;-78
2022/12/04 04:45:36;;;;;;;;;31.75;25.00;;;;;5.88;61.36;101052.47;2400055;28;45356;-79
2022/12/04 04:46:55;;;;;;;;;44.00;30.00;;;;;5.88;61.85;101059.44;2403767;28;45452;-78
2022/12/04 04:48:12;;;;;;;;;40.25;33.00;;;;;5.87;61.76;101063.78;2403888;28;45276;-79
2022/12/04 04:49:27;;;;;;;;;37.00;30.00;;;;;5.88;62.07;101062.06;2403253;28;48373;-78
2022/12/04 04:50:38;;;;;;;;;34.50;28.50;;;;;5.87;61.65;101060.31;2403515;28;44581;-78
2022/12/04 04:51:49;;;;;;;;;37.75;28.25;;;;;5.84;61.88;101056.84;2403882;28;45392;-79
2022/12/04 04:53:04;;;;;;;;;40.00;35.25;;;;;5.84;62.02;101056.84;2403167;28;45391;-78
2022/12/04 04:54:16;;;;;;;;;27.50;21.00;;;;;5.85;62.07;101057.72;2402266;28;46651;-79
2022/12/04 04:55:27;;;;;;;;;38.00;29.00;;;;;5.87;61.86;101057.69;2402904;28;44715;-79
2022/12/04 04:56:40;;;;;;;;;31.00;27.25;;;;;5.89;61.65;101058.53;2393403;28;47629;-79
2022/12/04 04:57:50;;;;;;;;;34.00;29.75;;;;;5.90;61.95;101055.91;2386647;28;44696;-79
2022/12/04 04:59:01;;;;;;;;;40.50;31.50;;;;;5.91;61.60;101062.00;2396361;28;45411;-79
2022/12/04 05:00:14;;;;;;;;;36.50;29.50;;;;;5.93;62.03;101055.03;2403571;28;44636;-78
2022/12/04 05:01:27;;;;;;;;;39.50;29.00;;;;;5.95;61.66;101053.28;2393473;28;48421;-79
2022/12/04 05:02:37;;;;;;;;;36.00;32.25;;;;;5.96;61.74;101060.22;2387129;28;44657;-79
2022/12/04 05:03:48;;;;;;;;;37.25;30.00;;;;;5.96;61.88;101052.41;2396117;28;47310;-79
2022/12/04 05:04:58;;;;;;;;;39.50;28.75;;;;;5.98;61.91;101063.69;2400914;28;45471;-79
2022/12/04 05:06:09;;;;;;;;;33.50;28.50;;;;;5.99;61.75;101065.44;2403680;28;46297;-78
2022/12/04 05:07:19;;;;;;;;;38.25;27.25;;;;;6.00;61.77;101061.91;2393532;28;44715;-79
2022/12/04 05:08:29;;;;;;;;;32.00;27.50;;;;;5.99;62.02;101065.44;2386692;28;46930;-79
2022/12/04 05:09:40;;;;;;;;;37.25;32.75;;;;;6.00;62.23;101067.13;2396658;28;45366;-79
2022/12/04 05:10:50;;;;;;;;;32.50;28.50;;;;;6.01;62.02;101066.28;2400315;28;46403;-78
2022/12/04 05:12:00;;;;;;;;;38.00;30.25;;;;;6.01;61.76;101068.00;2401004;28;45448;-79
2022/12/04 05:13:12;;;;;;;;;30.75;27.00;;;;;6.03;61.78;101068.84;2403555;28;45672;-78
2022/12/04 05:14:22;;;;;;;;;32.75;27.50;;;;;6.01;61.80;101063.66;2403851;28;45368;-79
2022/12/04 05:15:32;;;;;;;;;31.50;30.25;;;;;6.03;62.28;101061.91;2393206;28;47400;-78
2022/12/04 05:16:43;;;;;;;;;38.25;30.50;;;;;6.04;62.05;101058.44;2396459;28;44718;-79
2022/12/04 05:17:53;;;;;;;;;39.00;32.75;;;;;6.06;61.56;101061.88;2403497;28;45600;-78
2022/12/04 05:20:49;;;;;;;;;39.25;32.50;;;;;6.03;61.98;101061.91;2387622;28;45708;-79
2022/12/04 05:21:59;;;;;;;;;39.25;32.00;;;;;6.02;61.07;101070.63;2393270;28;45511;-78
2022/12/04 05:23:10;;;;;;;;;39.50;33.00;;;;;6.01;61.79;101062.78;2383526;28;47034;-79
2022/12/04 05:24:20;;;;;;;;;43.50;27.25;;;;;5.99;61.80;101065.44;2392333;28;45247;-79
2022/12/04 05:25:30;;;;;;;;;36.25;27.00;;;;;5.98;61.60;101068.91;2388596;28;47820;-79
2022/12/04 05:26:41;;;;;;;;;38.00;31.75;;;;;5.98;61.84;101066.28;2388156;28;45461;-79
2022/12/04 05:27:51;;;;;;;;;33.75;25.25;;;;;5.99;61.61;101060.22;2394576;28;47013;-79
2022/12/04 05:29:01;;;;;;;;;40.75;31.25;;;;;6.00;61.67;101067.13;2388046;28;45283;-79
2022/12/04 05:30:12;;;;;;;;;36.00;30.25;;;;;5.99;61.88;101067.16;2395905;28;45637;-79
2022/12/04 05:31:22;;;;;;;;;37.50;32.00;;;;;5.97;61.29;101057.59;2394689;28;45357;-79
2022/12/04 05:32:33;;;;;;;;;38.00;31.25;;;;;5.97;62.08;101068.03;2389499;28;46897;-79
2022/12/04 05:33:43;;;;;;;;;43.50;29.50;;;;;6.00;62.35;101081.94;2386321;28;45292;-79
2022/12/04 05:34:55;;;;;;;;;31.50;28.50;;;;;6.01;62.37;101086.28;2396273;28;45758;-79
2022/12/04 05:36:08;;;;;;;;;40.00;31.75;;;;;6.01;61.53;101094.97;2393437;28;45271;-79
2022/12/04 05:37:19;;;;;;;;;37.50;32.00;;;;;6.01;62.00;101097.59;2396541;28;45357;-79
2022/12/04 05:38:30;;;;;;;;;36.75;32.00;;;;;6.02;62.28;101095.84;2402826;28;45457;-79
2022/12/04 05:39:40;;;;;;;;;32.25;28.25;;;;;6.01;61.90;101092.38;2392875;28;47382;-79
2022/12/04 05:40:51;;;;;;;;;39.25;34.25;;;;;6.02;61.63;101096.72;2392822;28;45492;-79
2022/12/04 05:42:01;;;;;;;;;37.75;30.00;;;;;6.03;61.89;101094.97;2385488;28;48217;-79
2022/12/04 05:43:12;;;;;;;;;41.50;31.00;;;;;6.05;61.95;101101.91;2396306;28;44751;-79
2022/12/04 05:44:22;;;;;;;;;31.00;25.00;;;;;6.05;61.94;101099.28;2393212;28;47281;-79
2022/12/04 05:45:32;;;;;;;;;36.50;28.50;;;;;6.07;62.24;101100.16;2396054;28;45251;-79
2022/12/04 05:46:43;;;;;;;;;38.75;31.00;;;;;6.10;61.85;101104.50;2403226;28;45408;-79
2022/12/04 05:47:53;;;;;;;;;38.75;32.25;;;;;6.12;61.70;101101.91;2403434;28;45214;-79
2022/12/04 05:49:03;;;;;;;;;39.25;32.00;;;;;6.12;62.03;101102.75;2393159;28;47027;-79
2022/12/04 05:50:14;;;;;;;;;38.00;28.75;;;;;6.14;61.88;101110.56;2394112;28;45313;-79
2022/12/04 05:51:24;;;;;;;;;38.25;30.00;;;;;6.15;61.60;101107.09;2394070;28;46698;-79
2022/12/04 05:52:34;;;;;;;;;38.00;29.75;;;;;6.16;61.85;101116.63;2401674;28;45385;-79
2022/12/04 05:53:45;;;;;;;;;38.50;28.75;;;;;6.16;61.87;101119.25;2393103;28;48244;-79
2022/12/04 05:54:55;;;;;;;;;35.50;29.50;;;;;6.17;62.07;101121.00;2395998;28;45259;-79
2022/12/04 05:56:06;;;;;;;;;40.25;35.00;;;;;6.19;61.44;101111.41;2403444;28;46538;-79
2022/12/04 05:57:16;;;;;;;;;31.75;25.50;;;;;6.18;62.08;101109.66;2398126;28;45243;-79
2022/12/04 05:58:27;;;;;;;;;39.50;33.00;;;;;6.18;62.05;101117.50;2394919;28;47050;-78
2022/12/04 05:59:38;;;;;;;;;43.25;32.25;;;;;6.17;61.63;101113.16;2383724;28;45287;-79